Time;durP1;ratioP1;P1;durP2;ratioP2;P2;SDS_P1;SDS_P2;PMS_P1;PMS_P2;Temp;Humidity;BMP_temperature;BMP_pressure;BME280_temperature;BME280_humidity;BME280_pressure;Samples;Min_cycle;Max_cycle;Signal;HPM_P1;HPM_P2
2024/03/04 00:02:14;;;;;;;44.53;21.95;;;12.50;95.40;;;;;;5102182;28;20566;-74
2024/03/04 00:04:39;;;;;;;41.95;20.70;;;12.50;95.50;;;;;;5099860;28;20027;-74
2024/03/04 00:07:05;;;;;;;40.70;20.50;;;12.40;95.50;;;;;;5108287;28;20034;-74
2024/03/04 00:09:31;;;;;;;40.60;22.63;;;12.40;95.60;;;;;;5109887;28;20368;-74
2024/03/04 00:11:57;;;;;;;38.15;21.05;;;12.40;95.60;;;;;;5104843;28;20036;-74
2024/03/04 00:14:23;;;;;;;43.83;22.33;;;12.40;95.70;;;;;;5088731;28;20097;-74
2024/03/04 00:16:49;;;;;;;41.53;21.17;;;12.40;95.70;;;;;;5092016;28;20147;-74
2024/03/04 00:19:18;;;;;;;45.58;23.42;;;12.30;95.70;;;;;;5110144;28;20040;-74
2024/03/04 00:21:45;;;;;;;49.45;24.17;;;12.30;95.70;;;;;;5089645;28;20445;-74
2024/03/04 00:24:11;;;;;;;46.90;23.02;;;12.30;95.70;;;;;;5088125;28;20039;-74
2024/03/04 00:26:37;;;;;;;45.53;23.80;;;12.30;95.70;;;;;;5092880;28;20058;-74
2024/03/04 00:29:03;;;;;;;42.45;22.75;;;12.30;95.80;;;;;;5097713;28;20062;-74
2024/03/04 00:31:32;;;;;;;47.42;23.20;;;12.20;95.70;;;;;;5093100;28;20163;-74
2024/03/04 00:33:58;;;;;;;47.22;23.50;;;12.20;95.70;;;;;;5096999;28;20032;-74
2024/03/04 00:36:26;;;;;;;50.08;24.52;;;12.20;95.70;;;;;;5099936;28;20603;-74
2024/03/04 00:38:52;;;;;;;46.97;24.63;;;12.20;95.70;;;;;;5089453;28;20065;-74
2024/03/04 00:41:22;;;;;;;47.92;25.15;;;12.20;95.80;;;;;;5086959;28;20055;-74
2024/03/04 00:43:48;;;;;;;49.72;26.02;;;12.20;95.70;;;;;;5099772;28;20047;-74
2024/03/04 00:46:14;;;;;;;53.05;25.25;;;12.20;95.80;;;;;;5095377;28;20080;-74
2024/03/04 00:48:39;;;;;;;54.10;25.90;;;12.20;95.80;;;;;;5094883;28;20119;-74
2024/03/04 00:51:05;;;;;;;53.88;25.88;;;12.10;95.80;;;;;;5107122;28;20474;-74
2024/03/04 00:53:31;;;;;;;50.20;24.77;;;12.10;96.00;;;;;;5095623;28;20052;-74
2024/03/04 00:55:56;;;;;;;50.20;25.42;;;12.10;95.70;;;;;;5094069;28;20063;-74
2024/03/04 00:58:23;;;;;;;50.85;26.30;;;12.10;95.70;;;;;;5095523;28;20036;-74
2024/03/04 01:00:49;;;;;;;56.17;26.73;;;12.10;95.70;;;;;;5088684;28;20036;-74
2024/03/04 01:03:15;;;;;;;50.70;26.35;;;12.10;95.80;;;;;;5099268;28;20031;-74
2024/03/04 01:05:41;;;;;;;55.53;26.48;;;12.10;95.70;;;;;;5087643;28;20075;-74
2024/03/04 01:08:09;;;;;;;55.50;25.98;;;12.00;95.80;;;;;;5088093;28;20047;-74
2024/03/04 01:10:35;;;;;;;55.42;26.63;;;12.10;95.80;;;;;;5087134;28;20021;-74
2024/03/04 01:13:02;;;;;;;57.78;27.13;;;12.00;95.80;;;;;;5090263;28;20403;-74
2024/03/04 01:15:27;;;;;;;55.33;28.85;;;12.00;95.90;;;;;;5087893;28;20093;-74
2024/03/04 01:17:53;;;;;;;57.55;28.15;;;11.90;95.90;;;;;;5089735;28;20455;-74
2024/03/04 01:20:20;;;;;;;60.75;29.45;;;11.90;95.90;;;;;;5100898;28;20411;-74
2024/03/04 01:22:46;;;;;;;55.67;27.77;;;11.90;96.00;;;;;;5086795;28;20039;-74
2024/03/04 01:25:12;;;;;;;59.38;30.35;;;11.90;96.00;;;;;;5086856;28;20035;-74
2024/03/04 01:27:38;;;;;;;53.13;26.92;;;11.90;96.00;;;;;;5101236;28;20040;-74
2024/03/04 01:30:04;;;;;;;56.22;27.88;;;11.80;96.00;;;;;;5087301;28;20127;-74
2024/03/04 01:32:29;;;;;;;65.72;30.42;;;11.80;96.00;;;;;;5086962;28;20533;-74
2024/03/04 01:34:55;;;;;;;60.58;29.60;;;11.80;96.10;;;;;;5086332;28;20033;-73
2024/03/04 01:37:21;;;;;;;63.88;29.95;;;11.80;96.00;;;;;;5088525;28;20105;-74
2024/03/04 01:39:47;;;;;;;68.70;31.40;;;11.80;96.10;;;;;;5097558;28;20472;-74
2024/03/04 01:42:12;;;;;;;65.95;30.73;;;11.80;96.00;;;;;;5087789;28;20045;-74
2024/03/04 01:44:38;;;;;;;63.97;29.95;;;11.80;96.00;;;;;;5094999;28;20023;-74
2024/03/04 01:47:14;;;;;;;68.20;29.52;;;11.70;95.90;;;;;;5097959;28;20031;-74
2024/03/04 01:49:43;;;;;;;66.35;31.77;;;11.80;95.90;;;;;;5093473;28;20056;-74
2024/03/04 01:52:10;;;;;;;71.15;31.80;;;11.80;95.90;;;;;;5085972;28;20070;-74
2024/03/04 01:54:38;;;;;;;72.03;31.20;;;11.80;95.90;;;;;;5100096;28;20501;-74
2024/03/04 01:57:05;;;;;;;69.85;29.58;;;11.80;95.90;;;;;;5101025;28;20040;-74
2024/03/04 01:59:33;;;;;;;68.03;30.85;;;11.80;95.90;;;;;;5094681;28;20494;-74
2024/03/04 02:02:01;;;;;;;71.97;31.65;;;11.70;95.90;;;;;;5072536;28;20032;-74
2024/03/04 02:04:27;;;;;;;73.85;33.05;;;11.70;95.90;;;;;;5103039;28;20028;-74
2024/03/04 02:06:53;;;;;;;70.45;33.10;;;11.70;95.90;;;;;;5099844;28;20495;-74
2024/03/04 02:09:20;;;;;;;71.78;32.75;;;11.80;96.00;;;;;;5092180;28;20077;-73
2024/03/04 02:11:45;;;;;;;73.38;32.80;;;11.70;95.90;;;;;;5090266;28;20400;-74
2024/03/04 02:14:12;;;;;;;72.82;33.38;;;11.80;95.90;;;;;;5099528;28;20034;-74
2024/03/04 02:16:38;;;;;;;70.85;31.67;;;11.70;95.80;;;;;;5098445;28;20039;-74
2024/03/04 02:19:14;;;;;;;71.30;32.97;;;11.80;95.80;;;;;;5098266;28;20121;-74
2024/03/04 02:21:55;;;;;;;72.93;34.40;;;11.70;95.80;;;;;;5103326;28;20529;-74
2024/03/04 02:24:21;;;;;;;72.32;33.67;;;11.80;95.80;;;;;;5091557;28;20093;-74
2024/03/04 02:26:49;;;;;;;73.28;32.65;;;11.80;95.70;;;;;;5094655;28;20052;-74
2024/03/04 02:29:14;;;;;;;76.43;33.45;;;11.80;95.70;;;;;;5104227;28;20032;-74
2024/03/04 02:31:40;;;;;;;76.72;33.50;;;11.70;95.70;;;;;;5093734;28;20044;-74
2024/03/04 02:34:07;;;;;;;75.90;33.63;;;11.70;95.70;;;;;;5090585;28;20468;-74
2024/03/04 02:36:33;;;;;;;71.00;33.17;;;11.70;95.70;;;;;;5097012;28;20031;-74
2024/03/04 02:38:58;;;;;;;81.22;34.55;;;11.80;95.70;;;;;;5103313;28;20043;-74
2024/03/04 02:41:26;;;;;;;72.07;32.25;;;11.80;95.70;;;;;;5108299;28;20032;-73
2024/03/04 02:43:52;;;;;;;76.93;35.33;;;11.80;95.60;;;;;;5105248;28;20484;-73
2024/03/04 02:46:18;;;;;;;70.05;34.30;;;11.80;95.60;;;;;;5110922;28;20070;-73
2024/03/04 02:48:44;;;;;;;75.50;32.28;;;11.80;95.70;;;;;;5103688;28;20032;-73
2024/03/04 02:51:13;;;;;;;70.25;32.70;;;11.80;95.70;;;;;;5105824;28;20040;-74
2024/03/04 02:53:39;;;;;;;73.63;33.47;;;11.80;95.70;;;;;;5100645;27;20124;-73
2024/03/04 02:56:05;;;;;;;71.25;32.53;;;11.80;95.70;;;;;;5121811;27;20019;-73
2024/03/04 02:58:30;;;;;;;72.28;33.45;;;11.80;95.60;;;;;;5115120;27;20027;-73
2024/03/04 03:00:56;;;;;;;69.50;32.35;;;11.90;95.60;;;;;;5113996;27;20036;-74
2024/03/04 03:03:22;;;;;;;70.75;32.72;;;11.90;95.60;;;;;;5114361;27;20091;-73
2024/03/04 03:05:48;;;;;;;71.68;32.53;;;11.90;95.60;;;;;;5091780;28;20036;-73
2024/03/04 03:08:14;;;;;;;69.45;32.10;;;12.00;95.60;;;;;;5095741;28;20040;-73
2024/03/04 03:10:40;;;;;;;57.95;29.25;;;11.90;95.40;;;;;;5093294;28;20028;-74
2024/03/04 03:13:07;;;;;;;58.58;29.50;;;11.90;95.40;;;;;;5108317;27;20067;-73
2024/03/04 03:15:35;;;;;;;64.95;31.88;;;11.80;95.40;;;;;;5103945;28;20713;-73
2024/03/04 03:18:01;;;;;;;66.57;32.90;;;11.80;95.40;;;;;;5101333;28;20031;-73
2024/03/04 03:20:26;;;;;;;64.03;31.25;;;11.80;95.40;;;;;;5108768;28;20035;-73
2024/03/04 03:22:52;;;;;;;62.33;29.58;;;11.80;95.40;;;;;;5095685;28;20069;-74
2024/03/04 03:25:18;;;;;;;70.75;29.20;;;11.80;95.40;;;;;;5095938;28;20032;-73
2024/03/04 03:27:44;;;;;;;75.20;29.15;;;11.80;95.50;;;;;;5093428;28;20036;-74
2024/03/04 03:30:10;;;;;;;70.82;30.67;;;11.80;95.50;;;;;;5099268;27;20118;-73
2024/03/04 03:32:37;;;;;;;53.15;26.30;;;11.70;95.50;;;;;;5099267;28;20505;-73
2024/03/04 03:35:04;;;;;;;52.05;26.95;;;11.80;95.50;;;;;;5094308;28;20026;-73
2024/03/04 03:37:30;;;;;;;56.55;26.90;;;11.70;95.40;;;;;;5109428;28;20110;-73
2024/03/04 03:39:55;;;;;;;59.92;26.02;;;11.70;95.70;;;;;;5093745;28;20531;-73
2024/03/04 03:42:21;;;;;;;53.15;26.88;;;11.80;95.40;;;;;;5097277;28;20053;-73
2024/03/04 03:44:47;;;;;;;62.33;27.13;;;11.80;95.30;;;;;;5104241;28;20027;-74
2024/03/04 03:47:13;;;;;;;138.93;26.90;;;11.80;95.30;;;;;;5091796;28;20028;-73
2024/03/04 03:49:38;;;;;;;185.75;29.40;;;11.70;95.20;;;;;;5095588;28;20034;-74
2024/03/04 03:52:04;;;;;;;130.07;29.00;;;11.70;95.20;;;;;;5095861;28;20054;-73
2024/03/04 03:54:31;;;;;;;184.00;28.13;;;11.80;95.20;;;;;;5098834;28;20047;-73
2024/03/04 03:56:57;;;;;;;251.48;27.80;;;11.70;95.20;;;;;;5098739;28;20023;-73
2024/03/04 03:59:23;;;;;;;190.32;25.70;;;11.70;95.20;;;;;;5091542;28;20503;-73
2024/03/04 04:01:48;;;;;;;153.75;27.95;;;11.60;95.30;;;;;;5088958;28;20086;-73
2024/03/04 04:04:14;;;;;;;255.02;30.23;;;11.60;95.30;;;;;;5110323;27;21168;-73
2024/03/04 04:06:40;;;;;;;389.95;32.22;;;11.70;95.30;;;;;;5102872;28;20039;-74
2024/03/04 04:09:06;;;;;;;532.65;34.08;;;11.60;95.30;;;;;;5096367;28;20036;-73
2024/03/04 04:11:32;;;;;;;394.48;29.02;;;11.60;95.40;;;;;;5089354;28;20072;-73
2024/03/04 04:13:58;;;;;;;355.75;27.33;;;11.60;95.40;;;;;;5087324;28;20074;-73
2024/03/04 04:16:28;;;;;;;438.48;29.55;;;11.50;95.40;;;;;;5101263;28;20036;-73
2024/03/04 04:18:54;;;;;;;347.95;26.30;;;11.50;95.50;;;;;;5106849;28;20038;-73
2024/03/04 04:21:22;;;;;;;324.25;25.50;;;11.50;95.50;;;;;;5087477;28;20028;-73
2024/03/04 04:23:48;;;;;;;363.25;25.40;;;11.40;95.40;;;;;;5090515;28;20495;-74
2024/03/04 04:26:23;;;;;;;412.55;27.27;;;11.50;95.50;;;;;;5102189;28;20054;-73
2024/03/04 04:28:49;;;;;;;329.23;24.77;;;11.50;95.50;;;;;;5098805;28;20038;-74
2024/03/04 04:31:22;;;;;;;486.05;27.73;;;11.40;95.50;;;;;;5108331;28;21150;-74
2024/03/04 04:33:49;;;;;;;216.50;23.25;;;11.40;95.60;;;;;;5095688;28;20044;-74
2024/03/04 04:36:18;;;;;;;399.02;26.20;;;11.40;95.70;;;;;;5094677;28;20031;-73
2024/03/04 04:38:44;;;;;;;343.15;28.33;;;11.30;95.70;;;;;;5093394;28;20502;-74
2024/03/04 04:41:10;;;;;;;259.20;28.02;;;11.30;95.60;;;;;;5098129;28;20051;-74
2024/03/04 04:43:39;;;;;;;218.20;26.65;;;11.30;95.50;;;;;;5091188;28;20379;-74
2024/03/04 04:46:04;;;;;;;308.88;28.92;;;11.30;95.50;;;;;;5089829;28;20039;-73
2024/03/04 04:48:30;;;;;;;338.17;27.13;;;11.30;95.40;;;;;;5100206;28;20471;-73
2024/03/04 04:50:56;;;;;;;274.20;28.95;;;11.30;95.40;;;;;;5107166;28;20114;-74
2024/03/04 04:53:23;;;;;;;274.17;27.48;;;11.30;95.40;;;;;;5091706;28;20043;-73
2024/03/04 04:55:49;;;;;;;231.18;26.67;;;11.40;95.40;;;;;;5099078;28;20024;-74
2024/03/04 04:58:15;;;;;;;240.32;25.70;;;11.40;95.30;;;;;;5089256;28;20364;-73
2024/03/04 05:00:41;;;;;;;292.50;25.55;;;11.40;95.30;;;;;;5090946;28;20036;-73
2024/03/04 05:03:07;;;;;;;219.52;24.98;;;11.40;95.20;;;;;;5106671;28;20125;-73
2024/03/04 05:05:32;;;;;;;240.48;25.15;;;11.40;95.20;;;;;;5106289;28;20031;-73
2024/03/04 05:07:58;;;;;;;231.13;22.23;;;11.40;95.30;;;;;;5092938;28;20464;-73
2024/03/04 05:10:24;;;;;;;192.38;21.65;;;11.40;95.30;;;;;;5099586;28;20031;-73
2024/03/04 05:12:49;;;;;;;107.35;19.35;;;11.40;95.30;;;;;;5091878;28;20060;-73
2024/03/04 05:15:19;;;;;;;140.35;19.90;;;11.30;95.30;;;;;;5095715;28;20071;-73
2024/03/04 05:17:46;;;;;;;112.38;22.08;;;11.30;95.30;;;;;;5087746;28;20097;-73
2024/03/04 05:20:15;;;;;;;157.95;23.65;;;11.30;95.30;;;;;;5089571;28;20032;-73
2024/03/04 05:22:42;;;;;;;104.10;20.48;;;11.30;95.30;;;;;;5094242;28;20043;-73
2024/03/04 05:25:08;;;;;;;164.68;21.83;;;11.30;95.30;;;;;;5088713;28;20043;-73
2024/03/04 05:27:34;;;;;;;58.13;19.67;;;11.30;95.20;;;;;;5086448;28;20070;-73
2024/03/04 05:29:59;;;;;;;93.82;21.25;;;11.30;95.10;;;;;;5092544;28;20067;-73
2024/03/04 05:32:25;;;;;;;131.68;22.02;;;11.40;95.00;;;;;;5100082;28;20084;-73
2024/03/04 05:34:51;;;;;;;155.50;21.85;;;11.40;95.00;;;;;;5093091;28;20032;-73
2024/03/04 05:37:17;;;;;;;126.05;21.05;;;11.30;95.00;;;;;;5099788;28;20039;-75
2024/03/04 05:39:46;;;;;;;41.28;10.93;;;11.30;94.90;;;;;;5101169;28;20161;-74
2024/03/04 05:42:12;;;;;;;49.45;18.77;;;11.40;95.10;;;;;;5093776;28;20785;-74
2024/03/04 05:44:38;;;;;;;41.78;20.92;;;11.40;95.30;;;;;;5094268;28;20032;-74
2024/03/04 05:47:04;;;;;;;31.20;18.27;;;11.40;95.20;;;;;;5094466;28;20487;-74
2024/03/04 05:49:29;;;;;;;46.55;16.90;;;11.30;95.20;;;;;;5103068;28;20019;-74
2024/03/04 05:51:58;;;;;;;55.75;20.17;;;11.30;95.30;;;;;;5093575;28;20039;-74
2024/03/04 05:54:32;;;;;;;43.15;18.92;;;11.30;95.20;;;;;;5094694;28;20059;-74
2024/03/04 05:56:57;;;;;;;;;;;11.40;95.10;;;;;;5103084;28;20035;-74
2024/03/04 05:59:23;;;;;;;40.40;17.13;;;11.40;95.00;;;;;;5101315;28;19919;-73
2024/03/04 06:01:48;;;;;;;31.15;14.73;;;11.50;95.00;;;;;;5090947;28;20070;-74
2024/03/04 06:04:14;;;;;;;36.17;16.70;;;11.50;95.10;;;;;;5098477;27;20494;-73
2024/03/04 06:06:40;;;;;;;28.25;16.00;;;11.50;95.20;;;;;;5097800;28;20039;-74
2024/03/04 06:09:08;;;;;;;29.77;19.30;;;11.40;95.30;;;;;;5111027;28;20059;-73
2024/03/04 06:11:34;;;;;;;30.60;18.77;;;11.40;95.30;;;;;;5109692;28;20122;-73
2024/03/04 06:13:59;;;;;;;31.15;19.33;;;11.40;95.20;;;;;;5091498;28;20103;-73
2024/03/04 06:16:25;;;;;;;32.63;20.23;;;11.50;95.40;;;;;;5102063;28;20039;-73
2024/03/04 06:18:51;;;;;;;32.03;20.27;;;11.50;95.00;;;;;;5101997;28;20020;-73
2024/03/04 06:21:17;;;;;;;33.78;21.67;;;11.60;94.90;;;;;;5101307;28;20360;-76
2024/03/04 06:23:42;;;;;;;35.47;21.05;;;11.60;94.80;;;;;;5097370;28;20031;-73
2024/03/04 06:26:11;;;;;;;36.38;21.35;;;11.60;94.70;;;;;;5091835;28;20040;-74
2024/03/04 06:28:37;;;;;;;34.85;21.67;;;11.60;94.70;;;;;;5097937;28;20468;-74
2024/03/04 06:31:03;;;;;;;36.38;21.77;;;11.50;94.70;;;;;;5096302;28;20067;-74
2024/03/04 06:33:28;;;;;;;36.67;21.67;;;11.50;94.80;;;;;;5098290;28;20059;-72
2024/03/04 06:35:54;;;;;;;38.92;21.95;;;11.50;94.80;;;;;;5096490;28;20028;-74
2024/03/04 06:38:20;;;;;;;35.45;20.45;;;11.50;94.80;;;;;;5093726;28;20081;-74
2024/03/04 06:40:45;;;;;;;37.85;20.83;;;11.40;94.90;;;;;;5089303;28;20206;-74
2024/03/04 06:43:11;;;;;;;35.28;22.10;;;11.50;94.90;;;;;;5093367;28;20034;-74
2024/03/04 06:45:37;;;;;;;35.70;21.40;;;11.60;94.80;;;;;;5094647;28;20389;-74
2024/03/04 06:48:03;;;;;;;39.72;21.33;;;11.50;94.70;;;;;;5090076;28;20035;-74
2024/03/04 06:50:29;;;;;;;33.90;22.17;;;11.50;94.70;;;;;;5100333;28;20127;-74
2024/03/04 06:52:56;;;;;;;36.80;22.30;;;11.60;94.70;;;;;;5094351;28;20062;-73
2024/03/04 06:55:22;;;;;;;42.72;21.98;;;11.60;94.70;;;;;;5091509;28;20109;-73
2024/03/04 06:57:47;;;;;;;39.60;21.52;;;11.70;94.60;;;;;;5096421;28;20303;-74
2024/03/04 07:00:13;;;;;;;39.45;21.70;;;11.60;94.50;;;;;;5096732;28;20028;-73
2024/03/04 07:02:39;;;;;;;33.75;21.10;;;11.60;94.60;;;;;;5105353;27;20107;-74
2024/03/04 07:05:06;;;;;;;36.28;21.60;;;11.60;94.60;;;;;;5088980;28;20126;-74
2024/03/04 07:07:32;;;;;;;37.05;21.42;;;11.60;94.60;;;;;;5093977;28;20028;-74
2024/03/04 07:09:59;;;;;;;35.28;20.55;;;11.50;94.70;;;;;;5090582;28;20548;-73
2024/03/04 07:12:25;;;;;;;34.35;20.30;;;11.60;94.60;;;;;;5091264;28;20047;-73
2024/03/04 07:14:51;;;;;;;34.97;21.75;;;11.70;94.50;;;;;;5102089;28;20031;-73
2024/03/04 07:17:16;;;;;;;39.00;21.77;;;11.80;94.40;;;;;;5093261;28;20044;-72
2024/03/04 07:19:42;;;;;;;37.35;22.42;;;11.80;94.30;;;;;;5093172;28;20115;-72
2024/03/04 07:22:08;;;;;;;37.78;22.23;;;11.80;94.30;;;;;;5101009;28;20032;-72
2024/03/04 07:24:34;;;;;;;37.20;23.17;;;11.90;94.30;;;;;;5093715;28;20402;-73
2024/03/04 07:27:00;;;;;;;41.13;22.92;;;11.90;94.20;;;;;;5103553;28;20028;-72
2024/03/04 07:29:25;;;;;;;38.45;22.45;;;12.00;94.20;;;;;;5092294;28;20032;-73
2024/03/04 07:31:51;;;;;;;41.95;22.30;;;12.00;94.10;;;;;;5095308;28;20044;-73
2024/03/04 07:34:17;;;;;;;54.85;25.42;;;12.10;94.10;;;;;;5094196;28;20467;-73
2024/03/04 07:36:43;;;;;;;44.15;25.25;;;12.10;94.10;;;;;;5099503;28;20032;-73
2024/03/04 07:39:08;;;;;;;62.20;27.02;;;12.10;94.10;;;;;;5089398;28;20027;-74
2024/03/04 07:41:34;;;;;;;66.25;27.92;;;12.20;94.10;;;;;;5097938;28;20028;-74
2024/03/04 07:44:00;;;;;;;69.47;29.50;;;12.20;94.10;;;;;;5098126;28;20028;-73
2024/03/04 07:46:25;;;;;;;97.47;28.88;;;12.20;94.10;;;;;;5097240;28;20123;-73
2024/03/04 07:48:51;;;;;;;73.93;28.95;;;12.20;94.00;;;;;;5101445;28;20479;-73
2024/03/04 07:51:17;;;;;;;73.43;29.23;;;12.20;94.00;;;;;;5096201;28;20032;-73
2024/03/04 07:53:42;;;;;;;74.55;29.20;;;12.20;94.00;;;;;;5086150;28;20055;-73
2024/03/04 07:56:09;;;;;;;83.38;27.20;;;12.20;94.10;;;;;;5098528;28;20031;-72
2024/03/04 07:58:36;;;;;;;117.35;30.20;;;12.30;94.10;;;;;;5093167;28;20119;-73
2024/03/04 08:01:02;;;;;;;110.93;29.25;;;12.30;94.00;;;;;;5105326;28;20558;-73
2024/03/04 08:03:28;;;;;;;119.10;28.58;;;12.20;94.00;;;;;;5103071;27;20038;-73
2024/03/04 08:05:53;;;;;;;79.55;28.15;;;12.20;94.10;;;;;;5070519;28;20027;-73
2024/03/04 08:08:19;;;;;;;82.47;28.25;;;12.20;94.10;;;;;;5095805;28;20494;-73
2024/03/04 08:10:44;;;;;;;69.22;27.00;;;12.20;94.20;;;;;;5103814;28;20023;-74
2024/03/04 08:13:13;;;;;;;90.75;26.88;;;12.20;94.30;;;;;;5097546;28;20063;-74
2024/03/04 08:15:39;;;;;;;86.38;25.70;;;12.10;94.40;;;;;;5103424;28;20051;-74
2024/03/04 08:18:05;;;;;;;71.10;22.02;;;12.10;94.60;;;;;;5094002;28;20453;-74
2024/03/04 08:20:31;;;;;;;54.72;20.35;;;12.00;94.70;;;;;;5092983;28;20066;-74
2024/03/04 08:22:57;;;;;;;83.38;24.92;;;12.00;94.90;;;;;;5101580;28;20024;-74
2024/03/04 08:25:22;;;;;;;59.50;18.00;;;11.90;95.00;;;;;;5096743;28;20589;-74
2024/03/04 08:27:48;;;;;;;32.95;13.23;;;11.80;95.20;;;;;;5098451;28;20127;-73
2024/03/04 08:30:15;;;;;;;21.45;9.68;;;11.80;95.30;;;;;;5089295;28;20036;-73
2024/03/04 08:32:44;;;;;;;16.13;5.80;;;11.70;95.50;;;;;;5093949;28;20035;-73
2024/03/04 08:35:10;;;;;;;19.58;9.50;;;11.60;95.70;;;;;;5088279;28;20120;-73
2024/03/04 08:37:36;;;;;;;15.43;8.00;;;11.60;95.90;;;;;;5106593;28;20118;-73
2024/03/04 08:40:04;;;;;;;24.08;9.85;;;11.50;96.10;;;;;;5101211;28;20028;-73
2024/03/04 08:42:30;;;;;;;38.60;16.13;;;11.40;96.20;;;;;;5088474;28;20047;-73
2024/03/04 08:44:56;;;;;;;37.60;18.05;;;11.40;96.30;;;;;;5093243;28;20023;-73
2024/03/04 08:47:22;;;;;;;47.10;25.05;;;11.40;96.40;;;;;;5102528;28;20063;-73
2024/03/04 08:49:48;;;;;;;55.67;25.20;;;11.40;96.40;;;;;;5100741;28;20547;-73
2024/03/04 08:52:13;;;;;;;54.33;26.00;;;11.50;96.30;;;;;;5101405;28;20040;-73
2024/03/04 08:54:39;;;;;;;54.45;27.10;;;11.50;96.20;;;;;;5092324;28;20116;-73
2024/03/04 08:57:05;;;;;;;60.00;28.88;;;11.70;96.10;;;;;;5104742;28;20391;-73
2024/03/04 08:59:31;;;;;;;59.45;27.80;;;11.70;96.00;;;;;;5107683;28;20031;-73
2024/03/04 09:01:57;;;;;;;62.38;28.95;;;11.80;96.00;;;;;;5102090;27;20039;-73
2024/03/04 09:04:22;;;;;;;61.53;29.02;;;11.80;96.00;;;;;;5109117;27;20418;-73
2024/03/04 09:06:49;;;;;;;63.40;30.67;;;11.90;95.90;;;;;;5089307;28;20040;-73
2024/03/04 09:09:15;;;;;;;63.05;27.50;;;11.90;95.90;;;;;;5106833;28;20031;-73
2024/03/04 09:11:41;;;;;;;64.10;29.25;;;11.90;95.90;;;;;;5094011;28;20110;-73
2024/03/04 09:14:07;;;;;;;68.20;32.63;;;12.00;96.00;;;;;;5099365;28;20028;-73
2024/03/04 09:16:33;;;;;;;63.00;30.65;;;12.10;96.10;;;;;;5097451;28;20492;-73
2024/03/04 09:18:58;;;;;;;61.67;26.85;;;12.10;96.10;;;;;;5098311;28;20706;-73
2024/03/04 09:21:25;;;;;;;73.00;29.98;;;12.10;96.00;;;;;;5093796;28;20032;-73
2024/03/04 09:23:53;;;;;;;70.53;30.52;;;12.20;96.00;;;;;;5098206;28;20119;-73
2024/03/04 09:26:19;;;;;;;60.95;27.63;;;12.20;96.00;;;;;;5088257;28;20028;-72
2024/03/04 09:28:50;;;;;;;66.47;28.40;;;12.30;96.00;;;;;;5096010;28;20025;-72
2024/03/04 09:31:16;;;;;;;61.83;29.27;;;12.30;95.90;;;;;;5099725;28;20043;-73
2024/03/04 09:33:46;;;;;;;59.88;25.95;;;12.30;95.80;;;;;;5085776;28;20082;-73
2024/03/04 09:36:12;;;;;;;67.20;31.13;;;12.30;95.70;;;;;;5088360;28;20028;-72
2024/03/04 09:38:38;;;;;;;73.95;32.95;;;12.20;95.70;;;;;;5102436;28;20289;-73
2024/03/04 09:41:03;;;;;;;76.82;34.80;;;12.30;95.70;;;;;;5100448;28;20079;-72
2024/03/04 09:43:37;;;;;;;63.67;30.40;;;12.10;95.80;;;;;;5088859;28;20020;-72
2024/03/04 09:46:06;;;;;;;67.85;30.60;;;12.10;96.10;;;;;;5100358;28;20120;-72
2024/03/04 09:48:32;;;;;;;69.15;32.92;;;12.10;96.10;;;;;;5088577;28;20118;-73
2024/03/04 09:51:01;;;;;;;76.80;33.47;;;12.10;96.30;;;;;;5099406;28;20035;-73
2024/03/04 09:53:27;;;;;;;79.38;33.40;;;12.10;96.30;;;;;;5089061;28;20067;-73
2024/03/04 09:55:53;;;;;;;68.63;31.90;;;12.20;96.40;;;;;;5086342;28;20036;-73
2024/03/04 09:58:20;;;;;;;69.88;32.00;;;12.20;96.00;;;;;;5093512;28;20038;-73
2024/03/04 10:00:46;;;;;;;67.07;31.10;;;12.10;96.30;;;;;;5095447;28;20111;-73
2024/03/04 10:03:12;;;;;;;68.45;32.08;;;12.00;96.60;;;;;;5079397;28;20059;-73
2024/03/04 10:05:39;;;;;;;72.22;31.90;;;12.10;96.70;;;;;;5099961;28;20067;-73
2024/03/04 10:08:05;;;;;;;63.10;29.65;;;12.20;96.70;;;;;;5099746;28;20042;-72
2024/03/04 10:10:31;;;;;;;68.88;31.60;;;12.30;96.60;;;;;;5099737;28;20036;-73
2024/03/04 10:12:57;;;;;;;75.30;32.85;;;12.40;96.50;;;;;;5086853;28;20089;-72
2024/03/04 10:15:23;;;;;;;71.70;33.47;;;12.40;96.20;;;;;;5089362;28;20020;-72
2024/03/04 10:17:50;;;;;;;64.78;32.03;;;12.30;96.40;;;;;;5103253;28;20372;-72
2024/03/04 10:20:16;;;;;;;65.30;31.70;;;12.30;96.50;;;;;;5104027;28;20035;-73
2024/03/04 10:22:43;;;;;;;66.45;30.92;;;12.30;96.70;;;;;;5103926;28;20065;-72
2024/03/04 10:25:13;;;;;;;73.15;35.80;;;12.30;96.90;;;;;;5091278;28;20036;-72
2024/03/04 10:27:43;;;;;;;72.70;32.83;;;12.40;96.90;;;;;;5103936;28;20031;-73
2024/03/04 10:30:22;;;;;;;75.90;33.00;;;12.40;96.80;;;;;;5092685;28;20058;-73
2024/03/04 10:32:53;;;;;;;75.55;35.72;;;12.40;96.80;;;;;;5097061;28;20522;-73
2024/03/04 10:35:19;;;;;;;63.97;31.23;;;12.40;96.90;;;;;;5090431;28;20548;-73
2024/03/04 10:37:45;;;;;;;75.22;33.90;;;12.30;96.80;;;;;;5104205;28;20053;-73
2024/03/04 10:40:11;;;;;;;71.50;31.02;;;12.30;97.00;;;;;;5103021;28;20541;-73
2024/03/04 10:42:43;;;;;;;78.18;34.92;;;12.30;97.10;;;;;;5100338;28;20067;-73
2024/03/04 10:45:12;;;;;;;75.30;32.30;;;12.50;97.10;;;;;;5098523;28;20031;-72
2024/03/04 10:47:41;;;;;;;83.38;33.78;;;12.60;97.00;;;;;;5092785;28;20040;-73
2024/03/04 10:50:07;;;;;;;77.80;36.33;;;12.60;96.90;;;;;;5101674;28;20035;-73
2024/03/04 10:52:33;;;;;;;71.70;34.65;;;12.70;96.90;;;;;;5103126;28;20036;-73
2024/03/04 10:54:59;;;;;;;82.00;34.95;;;12.60;96.70;;;;;;5102362;28;20107;-73
2024/03/04 10:57:27;;;;;;;75.95;33.80;;;12.70;97.00;;;;;;5103006;28;20132;-73
2024/03/04 10:59:57;;;;;;;73.90;32.60;;;12.70;96.90;;;;;;5090407;28;20028;-73
2024/03/04 11:02:40;;;;;;;69.68;33.28;;;12.70;96.90;;;;;;5110166;27;20031;-73
2024/03/04 11:05:11;;;;;;;77.75;36.05;;;12.70;97.30;;;;;;5100465;27;20039;-73
2024/03/04 11:07:43;;;;;;;72.15;34.38;;;12.70;97.10;;;;;;5090554;28;20065;-73
2024/03/04 11:10:19;;;;;;;79.10;34.13;;;12.80;97.10;;;;;;5090814;28;20031;-73
2024/03/04 11:13:08;;;;;;;74.38;33.75;;;12.80;97.10;;;;;;5095368;28;20059;-73
2024/03/04 11:15:41;;;;;;;74.55;33.55;;;12.80;97.20;;;;;;5040241;28;20044;-73
2024/03/04 11:18:15;;;;;;;73.78;33.55;;;12.80;97.30;;;;;;5093856;28;20350;-73
2024/03/04 11:20:46;;;;;;;73.40;33.70;;;12.90;97.20;;;;;;5097948;28;20036;-72
2024/03/04 11:23:13;;;;;;;68.28;31.42;;;13.00;97.10;;;;;;5097537;28;20040;-73
2024/03/04 11:25:40;;;;;;;66.53;32.42;;;13.00;97.10;;;;;;5095079;28;20040;-72
2024/03/04 11:28:07;;;;;;;77.78;35.65;;;13.10;97.10;;;;;;5103455;28;20415;-72
2024/03/04 11:30:35;;;;;;;72.13;33.53;;;13.20;97.00;;;;;;5088749;28;20162;-72
2024/03/04 11:33:40;;;;;;;64.47;32.88;;;13.30;96.90;;;;;;5104345;28;20040;-74
2024/03/04 11:36:10;;;;;;;67.78;32.58;;;13.30;96.90;;;;;;5100178;28;20885;-73
2024/03/04 11:38:41;;;;;;;70.25;35.15;;;13.30;96.90;;;;;;5089809;28;20040;-73
2024/03/04 11:41:07;;;;;;;59.40;30.95;;;13.40;96.90;;;;;;5088874;28;20036;-74
2024/03/04 11:43:46;;;;;;;56.65;26.92;;;13.50;96.80;;;;;;5098813;28;20053;-74
2024/03/04 11:46:13;;;;;;;62.92;31.10;;;13.50;96.80;;;;;;5070779;28;20046;-74
2024/03/04 11:48:39;;;;;;;66.45;33.45;;;13.50;96.70;;;;;;5099020;28;20024;-74
2024/03/04 11:51:05;;;;;;;71.82;33.40;;;13.60;96.70;;;;;;5100376;28;20399;-74
2024/03/04 11:53:31;;;;;;;61.55;28.98;;;13.70;96.70;;;;;;5102880;28;20052;-74
2024/03/04 11:55:57;;;;;;;64.15;28.98;;;13.70;96.70;;;;;;5090031;28;20016;-74
2024/03/04 11:58:24;;;;;;;43.67;17.38;;;13.70;96.60;;;;;;5101213;28;20510;-74
2024/03/04 12:00:50;;;;;;;55.30;27.27;;;13.70;96.90;;;;;;5089855;28;20024;-74
2024/03/04 12:03:17;;;;;;;59.20;24.27;;;13.60;97.00;;;;;;5105259;27;20484;-74
2024/03/04 12:05:43;;;;;;;47.10;21.10;;;13.60;97.10;;;;;;5101449;28;20032;-74
2024/03/04 12:08:09;;;;;;;62.42;30.38;;;13.60;97.40;;;;;;5090070;28;20105;-74
2024/03/04 12:10:35;;;;;;;61.28;28.33;;;13.50;97.40;;;;;;5088016;28;20425;-74
2024/03/04 12:13:01;;;;;;;44.05;19.63;;;13.60;97.30;;;;;;5089118;28;20047;-74
2024/03/04 12:15:28;;;;;;;70.28;33.88;;;13.60;97.40;;;;;;5089007;28;20050;-74
2024/03/04 12:17:54;;;;;;;64.20;30.85;;;13.60;97.30;;;;;;5088045;28;20047;-74
2024/03/04 12:20:20;;;;;;;57.88;26.50;;;13.60;97.30;;;;;;5095191;28;20028;-74
2024/03/04 12:22:46;;;;;;;61.47;32.22;;;13.60;97.40;;;;;;5095972;28;20064;-74
2024/03/04 12:25:11;;;;;;;23.83;11.10;;;13.70;97.40;;;;;;5090374;28;20073;-74